Time;durP1;ratioP1;P1;durP2;ratioP2;P2;SDS_P1;SDS_P2;PMS_P1;PMS_P2;Temp;Humidity;BMP_temperature;BMP_pressure;BME280_temperature;BME280_humidity;BME280_pressure;Samples;Min_cycle;Max_cycle;Signal;HPM_P1;HPM_P2
2023/01/04 00:02:07;;;;;;;4.50;1.23;;;8.40;99.90;;;;;;5044835;28;20047;-40
2023/01/04 00:04:32;;;;;;;8.98;1.33;;;8.40;99.90;;;;;;5055866;28;20029;-37
2023/01/04 00:06:58;;;;;;;8.40;1.30;;;8.40;99.90;;;;;;5060156;28;20074;-35
2023/01/04 00:09:24;;;;;;;4.78;1.05;;;8.40;99.90;;;;;;5059260;28;20463;-38
2023/01/04 00:11:49;;;;;;;3.75;1.58;;;8.40;99.90;;;;;;5063456;28;20040;-35
2023/01/04 00:14:17;;;;;;;5.38;1.40;;;8.40;99.90;;;;;;5069152;28;20466;-36
2023/01/04 00:16:43;;;;;;;7.70;1.58;;;8.40;99.90;;;;;;5066203;28;20447;-37
2023/01/04 00:19:10;;;;;;;4.00;1.05;;;8.30;99.90;;;;;;5087159;28;20045;-36
2023/01/04 00:21:36;;;;;;;5.78;1.20;;;8.30;99.90;;;;;;5069762;28;20093;-37
2023/01/04 00:24:02;;;;;;;5.93;1.25;;;8.30;99.90;;;;;;5073951;28;20507;-37
2023/01/04 00:26:30;;;;;;;5.13;1.50;;;8.30;99.90;;;;;;5076618;28;20662;-35
2023/01/04 00:28:57;;;;;;;3.35;1.13;;;8.30;99.90;;;;;;5062631;28;20036;-40
2023/01/04 00:31:24;;;;;;;3.42;1.33;;;8.20;99.90;;;;;;5067971;28;20486;-36
2023/01/04 00:33:53;;;;;;;5.03;1.30;;;8.20;99.90;;;;;;5073483;28;20066;-39
2023/01/04 00:36:19;;;;;;;8.43;1.33;;;8.20;99.90;;;;;;5069667;28;20047;-37
2023/01/04 00:38:44;;;;;;;4.03;1.58;;;8.20;99.90;;;;;;5065090;28;20040;-35
2023/01/04 00:41:11;;;;;;;4.72;1.75;;;8.20;99.90;;;;;;5077280;28;20040;-40
2023/01/04 00:43:37;;;;;;;4.13;1.10;;;8.20;99.90;;;;;;5070587;28;20073;-37
2023/01/04 00:46:04;;;;;;;5.07;1.20;;;8.20;99.90;;;;;;5073129;28;20401;-35
2023/01/04 00:48:29;;;;;;;3.42;1.13;;;8.20;99.90;;;;;;5068207;28;20443;-36
2023/01/04 00:50:55;;;;;;;4.13;1.27;;;8.20;99.90;;;;;;5072221;28;20056;-37
2023/01/04 00:53:21;;;;;;;1.52;0.75;;;8.20;99.90;;;;;;5062122;28;20437;-36
2023/01/04 00:55:47;;;;;;;8.27;1.52;;;8.20;99.90;;;;;;5067600;28;20032;-39
2023/01/04 00:58:13;;;;;;;7.88;1.75;;;8.20;99.90;;;;;;5069448;28;20435;-35
2023/01/04 01:00:39;;;;;;;3.92;1.10;;;8.20;99.90;;;;;;5069800;28;21163;-35
2023/01/04 01:03:05;;;;;;;5.50;1.20;;;8.20;99.90;;;;;;5067215;28;20378;-36
2023/01/04 01:05:34;;;;;;;4.65;1.63;;;8.20;99.90;;;;;;5060161;28;20036;-35
2023/01/04 01:08:23;;;;;;;6.60;1.30;;;8.20;99.90;;;;;;5064946;28;20036;-36
2023/01/04 01:10:47;;;;;;;5.15;1.17;;;8.20;99.90;;;;;;5062789;28;20106;-36
2023/01/04 01:13:13;;;;;;;4.50;1.17;;;8.20;99.90;;;;;;5066313;28;20040;-36
2023/01/04 01:15:39;;;;;;;4.45;1.55;;;8.20;99.90;;;;;;5066621;28;20052;-39
2023/01/04 01:18:04;;;;;;;4.05;1.15;;;8.20;99.90;;;;;;5069284;28;20036;-35
2023/01/04 01:20:30;;;;;;;6.80;1.60;;;8.20;99.90;;;;;;5066282;28;20029;-35
2023/01/04 01:22:55;;;;;;;4.30;1.40;;;8.20;99.90;;;;;;5068443;28;20067;-35
2023/01/04 01:25:21;;;;;;;3.30;1.25;;;8.20;99.90;;;;;;5070041;28;20043;-36
2023/01/04 01:27:47;;;;;;;3.38;1.05;;;8.20;99.90;;;;;;5068295;28;20094;-36
2023/01/04 01:30:12;;;;;;;2.55;1.20;;;8.20;99.90;;;;;;5072808;28;21679;-37
2023/01/04 01:32:38;;;;;;;1.92;0.80;;;8.20;99.90;;;;;;5065491;28;20041;-35
2023/01/04 01:35:04;;;;;;;2.22;0.98;;;8.20;99.90;;;;;;5067737;28;20040;-37
2023/01/04 01:37:30;;;;;;;4.78;1.20;;;8.20;99.90;;;;;;5066470;28;20041;-36
2023/01/04 01:39:55;;;;;;;4.50;1.30;;;8.20;99.90;;;;;;5062554;28;20036;-35
2023/01/04 01:42:22;;;;;;;8.85;2.60;;;8.20;99.90;;;;;;5074012;28;20059;-35
2023/01/04 01:44:57;;;;;;;3.45;1.73;;;8.20;99.90;;;;;;5071534;28;20083;-37
2023/01/04 01:47:27;;;;;;;4.60;1.23;;;8.20;99.90;;;;;;5071899;28;20044;-35
2023/01/04 01:49:54;;;;;;;3.28;1.10;;;8.20;99.90;;;;;;5065752;28;20085;-36
2023/01/04 01:52:32;;;;;;;5.68;1.00;;;8.20;99.90;;;;;;5063121;28;20052;-38
2023/01/04 01:55:03;;;;;;;2.80;0.90;;;8.20;99.90;;;;;;5064428;28;20040;-38
2023/01/04 01:57:32;;;;;;;2.60;0.90;;;8.30;99.90;;;;;;5066179;28;20048;-36
2023/01/04 02:00:03;;;;;;;1.80;0.80;;;8.30;99.90;;;;;;5088568;28;20520;-37
2023/01/04 02:02:29;;;;;;;3.13;0.70;;;8.30;99.90;;;;;;5068622;28;20091;-36
2023/01/04 02:04:57;;;;;;;3.88;0.80;;;8.20;99.90;;;;;;5072092;28;20056;-36
2023/01/04 02:07:26;;;;;;;6.55;1.10;;;8.30;99.90;;;;;;5061921;28;20040;-36
2023/01/04 02:09:53;;;;;;;1.67;0.70;;;8.30;99.90;;;;;;5055788;28;20039;-37
2023/01/04 02:12:19;;;;;;;3.35;0.80;;;8.30;99.90;;;;;;5065032;28;20047;-36
2023/01/04 02:14:47;;;;;;;1.80;0.68;;;8.40;99.90;;;;;;5067345;28;20032;-35
2023/01/04 02:17:33;;;;;;;3.33;0.63;;;8.40;99.90;;;;;;5069058;28;20111;-37
2023/01/04 02:20:10;;;;;;;1.40;0.50;;;8.40;99.90;;;;;;5067636;28;20059;-37
2023/01/04 02:22:54;;;;;;;4.25;0.60;;;8.50;99.90;;;;;;5064680;28;20086;-35
2023/01/04 02:25:45;;;;;;;0.77;0.35;;;8.50;99.90;;;;;;5064432;28;20036;-35
2023/01/04 02:28:41;;;;;;;0.93;0.35;;;8.50;99.90;;;;;;5065463;28;20041;-36
2023/01/04 02:32:02;;;;;;;3.03;0.50;;;8.60;99.90;;;;;;5063255;28;20052;-36
2023/01/04 02:34:33;;;;;;;1.85;0.50;;;8.60;99.90;;;;;;5047730;28;20110;-37
2023/01/04 02:37:07;;;;;;;1.50;0.50;;;8.60;99.90;;;;;;5067978;28;20133;-36
2023/01/04 02:40:17;;;;;;;0.93;0.43;;;8.60;99.90;;;;;;5070882;28;20044;-38
2023/01/04 02:45:54;;;;;;;1.38;0.90;;;8.70;99.90;;;;;;4967617;28;20512;-37
2023/01/04 02:51:04;;;;;;;2.45;0.50;;;8.80;99.90;;;;;;5066735;28;20083;-35
2023/01/04 02:53:39;;;;;;;1.30;0.50;;;8.90;99.90;;;;;;5070052;28;20098;-36
2023/01/04 02:56:34;;;;;;;0.90;0.50;;;8.90;99.90;;;;;;5075085;28;20090;-35
2023/01/04 02:59:14;;;;;;;1.30;0.60;;;9.00;99.90;;;;;;5068249;28;20060;-36
2023/01/04 03:07:53;;;;;;;1.95;0.82;;;9.10;99.90;;;;;;5065911;28;20051;-35
2023/01/04 03:10:34;;;;;;;1.95;0.82;;;9.10;99.90;;;;;;5046356;28;20044;-37
2023/01/04 03:13:12;;;;;;;2.65;1.00;;;9.20;99.90;;;;;;5064729;28;20099;-36
2023/01/04 03:15:39;;;;;;;2.70;1.50;;;9.20;99.90;;;;;;5065259;28;20159;-36
2023/01/04 03:18:19;;;;;;;2.63;1.17;;;9.20;99.90;;;;;;5066160;28;20493;-36
2023/01/04 03:20:47;;;;;;;3.22;1.00;;;9.30;99.90;;;;;;5062659;28;20045;-36
2023/01/04 03:50:48;;;;;;;2.70;1.25;;;9.40;99.90;;;;;;5065837;28;20043;-35
2023/01/04 03:53:14;;;;;;;3.45;1.77;;;9.40;99.90;;;;;;5035718;28;20118;-37
2023/01/04 03:55:41;;;;;;;2.97;1.70;;;9.50;99.90;;;;;;5065570;28;20086;-35
2023/01/04 03:58:07;;;;;;;4.15;1.40;;;9.50;99.90;;;;;;5072788;28;20063;-36
2023/01/04 04:00:33;;;;;;;3.33;1.80;;;9.50;99.90;;;;;;5050665;28;20041;-36
2023/01/04 04:03:06;;;;;;;3.28;1.60;;;9.50;99.90;;;;;;5065481;28;20094;-37
2023/01/04 04:08:28;;;;;;;3.75;1.55;;;9.60;99.90;;;;;;5062284;28;20140;-38
2023/01/04 04:11:29;;;;;;;3.03;1.40;;;9.60;99.90;;;;;;5062418;28;20040;-39
2023/01/04 04:13:47;;;;;;;4.05;2.30;;;9.70;99.90;;;;;;5065234;28;20044;-37
2023/01/04 04:16:13;;;;;;;3.55;2.20;;;9.70;99.90;;;;;;5067227;28;20501;-37
2023/01/04 04:18:39;;;;;;;2.40;1.30;;;9.70;99.90;;;;;;5065496;28;20055;-39
2023/01/04 04:21:05;;;;;;;2.88;1.52;;;9.70;99.90;;;;;;5067848;28;20048;-35
2023/01/04 04:23:30;;;;;;;3.67;1.80;;;9.80;99.90;;;;;;5069966;28;20051;-36
2023/01/04 04:25:56;;;;;;;3.65;1.77;;;9.80;99.90;;;;;;5065351;28;20035;-35
2023/01/04 04:28:22;;;;;;;4.57;2.40;;;9.80;99.90;;;;;;5067242;28;20036;-38
2023/01/04 04:30:51;;;;;;;3.05;1.95;;;9.80;99.90;;;;;;5065373;28;20122;-36
2023/01/04 04:33:17;;;;;;;4.88;2.90;;;9.80;99.90;;;;;;5047476;28;20089;-38
2023/01/04 04:35:42;;;;;;;5.45;2.20;;;9.90;99.90;;;;;;5067763;28;20118;-37
2023/01/04 04:38:08;;;;;;;5.40;3.00;;;9.90;99.90;;;;;;5064807;28;20039;-36
2023/01/04 04:43:18;;;;;;;6.28;2.85;;;9.80;99.90;;;;;;5068665;28;20513;-36
2023/01/04 04:45:44;;;;;;;4.10;2.30;;;9.80;99.90;;;;;;5066318;28;20028;-37
2023/01/04 04:48:09;;;;;;;6.65;3.65;;;9.90;99.90;;;;;;5065151;28;20174;-36
2023/01/04 04:50:35;;;;;;;6.13;3.70;;;9.90;99.90;;;;;;5066239;28;20503;-36
2023/01/04 04:53:01;;;;;;;5.82;3.20;;;10.00;99.90;;;;;;5067872;28;20119;-36
2023/01/04 04:55:27;;;;;;;5.50;2.95;;;10.00;99.90;;;;;;5068803;28;20028;-36
2023/01/04 04:57:52;;;;;;;4.53;2.47;;;10.00;99.90;;;;;;5065958;28;20045;-37
2023/01/04 05:00:18;;;;;;;7.38;3.88;;;10.00;99.90;;;;;;5066199;28;20129;-35
2023/01/04 05:02:44;;;;;;;5.38;3.25;;;10.10;99.90;;;;;;5065775;28;20037;-37
2023/01/04 05:05:09;;;;;;;7.10;3.58;;;10.10;99.90;;;;;;5050751;28;20059;-37
2023/01/04 05:07:35;;;;;;;5.32;3.33;;;10.10;99.90;;;;;;5066940;28;20039;-36
2023/01/04 05:10:01;;;;;;;5.63;3.60;;;10.20;99.90;;;;;;5069854;28;20154;-36
2023/01/04 05:15:10;;;;;;;6.35;3.55;;;10.20;99.90;;;;;;5068734;28;20041;-37
2023/01/04 05:17:36;;;;;;;5.07;3.10;;;10.20;99.90;;;;;;5073170;28;20390;-36
2023/01/04 05:20:03;;;;;;;4.90;2.92;;;10.30;99.90;;;;;;5069015;28;20385;-36
2023/01/04 05:22:29;;;;;;;5.60;2.83;;;10.30;99.90;;;;;;5067938;28;20166;-36
2023/01/04 05:24:55;;;;;;;5.25;2.78;;;10.40;99.90;;;;;;5071011;28;20119;-36
2023/01/04 05:27:20;;;;;;;4.65;2.70;;;10.40;99.90;;;;;;5065839;28;20219;-36
2023/01/04 05:32:30;;;;;;;5.35;2.80;;;10.50;99.90;;;;;;5070977;28;20395;-37
2023/01/04 05:34:56;;;;;;;4.90;2.67;;;10.50;99.90;;;;;;5076558;28;20047;-36
2023/01/04 05:37:21;;;;;;;4.63;2.63;;;10.50;99.90;;;;;;5069010;28;20502;-36
2023/01/04 05:39:47;;;;;;;4.95;2.15;;;10.50;99.90;;;;;;5047440;28;20032;-39
2023/01/04 05:42:24;;;;;;;5.22;2.13;;;10.60;99.90;;;;;;5065964;28;20037;-37
2023/01/04 05:44:54;;;;;;;4.72;2.22;;;10.60;99.90;;;;;;5072095;28;20028;-35
2023/01/04 05:47:21;;;;;;;4.88;2.25;;;10.50;99.90;;;;;;5076078;28;20045;-37
2023/01/04 05:49:47;;;;;;;3.72;2.08;;;10.60;99.90;;;;;;5067464;28;20036;-39
2023/01/04 05:52:13;;;;;;;3.60;1.95;;;10.60;99.90;;;;;;5066597;28;20087;-36
2023/01/04 05:54:39;;;;;;;5.60;2.63;;;10.60;99.90;;;;;;5049291;28;20077;-43
2023/01/04 05:57:05;;;;;;;5.57;2.00;;;10.60;99.90;;;;;;5068238;28;20078;-36
2023/01/04 05:59:31;;;;;;;4.32;2.40;;;10.60;99.90;;;;;;5072823;28;20071;-37
2023/01/04 06:01:56;;;;;;;3.70;1.90;;;10.70;99.90;;;;;;5069597;28;20040;-36
2023/01/04 06:04:22;;;;;;;4.47;2.00;;;10.60;99.90;;;;;;5059819;28;20033;-36
2023/01/04 06:06:48;;;;;;;6.47;1.88;;;10.70;99.90;;;;;;5072683;28;20525;-36
2023/01/04 06:09:13;;;;;;;6.78;3.08;;;10.60;99.90;;;;;;5074537;28;20051;-36
2023/01/04 06:11:39;;;;;;;3.40;1.92;;;10.60;99.90;;;;;;5070148;28;20098;-36
2023/01/04 06:14:05;;;;;;;5.45;1.83;;;10.60;99.90;;;;;;5070933;28;20533;-37
2023/01/04 06:16:31;;;;;;;3.20;1.90;;;10.70;99.90;;;;;;5071423;28;20080;-37
2023/01/04 06:18:56;;;;;;;3.15;1.67;;;10.70;99.90;;;;;;5073364;28;20036;-38
2023/01/04 06:21:24;;;;;;;5.88;1.35;;;10.70;99.90;;;;;;5066699;28;20124;-36
2023/01/04 06:23:50;;;;;;;3.85;1.70;;;10.70;99.90;;;;;;5072023;28;20044;-37
2023/01/04 06:26:16;;;;;;;2.88;1.15;;;10.70;99.90;;;;;;5065987;28;20518;-38
2023/01/04 06:28:42;;;;;;;2.92;1.60;;;10.70;99.90;;;;;;5064882;28;20036;-36
2023/01/04 06:31:09;;;;;;;1.92;1.05;;;10.70;99.90;;;;;;5069532;28;20401;-36
2023/01/04 06:33:35;;;;;;;4.18;1.40;;;10.60;99.90;;;;;;5065648;28;20126;-38
2023/01/04 06:36:01;;;;;;;3.25;1.30;;;10.60;99.90;;;;;;5068946;28;20036;-36
2023/01/04 06:38:27;;;;;;;4.72;1.38;;;10.60;99.90;;;;;;5062861;28;20115;-36
2023/01/04 06:40:52;;;;;;;3.33;1.25;;;10.60;99.90;;;;;;5069940;28;20035;-36
2023/01/04 06:43:18;;;;;;;2.55;1.00;;;10.70;99.90;;;;;;5070773;28;20037;-35
2023/01/04 06:45:44;;;;;;;2.00;1.00;;;10.70;99.90;;;;;;5068514;28;20032;-36
2023/01/04 06:48:10;;;;;;;2.83;1.65;;;10.70;99.90;;;;;;5068795;28;20622;-36
2023/01/04 06:50:36;;;;;;;1.70;0.70;;;10.70;99.90;;;;;;5061542;28;20486;-37
2023/01/04 06:53:02;;;;;;;3.28;1.27;;;10.70;99.90;;;;;;5045574;28;20086;-35
2023/01/04 06:55:30;;;;;;;3.58;1.20;;;10.70;99.90;;;;;;5052753;28;20098;-36
2023/01/04 06:57:56;;;;;;;2.55;1.10;;;10.70;99.90;;;;;;5052405;28;20045;-36
2023/01/04 07:00:23;;;;;;;2.15;1.10;;;10.70;99.90;;;;;;5052463;28;20037;-36
2023/01/04 07:02:48;;;;;;;3.35;0.93;;;10.70;99.90;;;;;;5039714;28;20033;-36
2023/01/04 07:05:14;;;;;;;3.30;1.17;;;10.70;99.90;;;;;;5045196;28;20494;-36
2023/01/04 07:07:40;;;;;;;3.42;1.25;;;10.70;99.90;;;;;;5049323;28;20430;-36
2023/01/04 07:10:06;;;;;;;2.22;1.17;;;10.70;99.90;;;;;;5046040;28;20068;-38
2023/01/04 07:12:32;;;;;;;2.88;1.08;;;10.70;99.90;;;;;;5060756;28;20130;-37
2023/01/04 07:14:58;;;;;;;3.40;1.10;;;10.70;99.90;;;;;;5050429;28;20068;-36
2023/01/04 07:17:24;;;;;;;3.28;1.40;;;10.70;99.90;;;;;;5027115;28;20438;-36
2023/01/04 07:19:50;;;;;;;2.63;1.33;;;10.70;99.90;;;;;;5042889;28;20045;-36
2023/01/04 07:22:15;;;;;;;2.95;1.40;;;10.70;99.90;;;;;;5050287;28;20033;-36
2023/01/04 07:24:42;;;;;;;2.75;1.38;;;10.70;99.90;;;;;;5048364;28;20382;-38
2023/01/04 07:27:09;;;;;;;4.45;1.40;;;10.70;99.90;;;;;;5045154;28;20498;-37
2023/01/04 07:29:35;;;;;;;3.40;1.58;;;10.70;99.90;;;;;;5053205;28;20044;-37
2023/01/04 07:32:01;;;;;;;2.40;1.40;;;10.70;99.90;;;;;;5049476;28;20561;-36
2023/01/04 07:34:27;;;;;;;3.97;2.08;;;10.70;99.90;;;;;;5045487;28;20080;-36
2023/01/04 07:36:53;;;;;;;3.72;1.80;;;10.70;99.90;;;;;;5053755;28;20398;-37
2023/01/04 07:39:20;;;;;;;3.53;1.65;;;10.70;99.90;;;;;;5043945;28;20049;-35
2023/01/04 07:41:47;;;;;;;6.32;2.10;;;10.70;99.90;;;;;;5048836;28;20500;-36
2023/01/04 07:44:13;;;;;;;2.75;1.42;;;10.70;99.90;;;;;;5045401;28;20045;-35
2023/01/04 07:46:39;;;;;;;5.80;1.95;;;10.80;99.90;;;;;;5047821;28;20193;-36
2023/01/04 07:49:05;;;;;;;5.95;2.45;;;10.80;99.90;;;;;;5043422;28;20087;-37
2023/01/04 07:51:32;;;;;;;3.97;2.17;;;10.80;99.90;;;;;;5059411;28;20044;-37
2023/01/04 07:53:58;;;;;;;4.80;1.83;;;10.80;99.90;;;;;;5073756;28;20048;-36
2023/01/04 07:56:24;;;;;;;3.63;1.80;;;10.80;99.90;;;;;;5063092;28;20044;-36
2023/01/04 07:58:49;;;;;;;4.15;1.73;;;10.90;99.90;;;;;;5068854;28;20032;-35
2023/01/04 08:01:18;;;;;;;4.85;2.50;;;10.90;99.90;;;;;;5067002;28;20511;-36
2023/01/04 08:03:45;;;;;;;4.60;1.90;;;10.90;99.90;;;;;;5046370;28;20044;-37
2023/01/04 08:06:13;;;;;;;4.03;2.30;;;10.90;99.90;;;;;;5057361;28;20043;-35
2023/01/04 08:08:39;;;;;;;6.57;2.63;;;10.90;99.90;;;;;;5062099;28;20044;-37
2023/01/04 08:11:07;;;;;;;3.70;2.05;;;10.90;99.90;;;;;;5057641;28;20508;-36
2023/01/04 08:13:33;;;;;;;4.43;2.47;;;10.90;99.90;;;;;;5067552;28;20102;-36
2023/01/04 08:15:59;;;;;;;4.95;2.45;;;10.90;99.90;;;;;;5050911;28;20037;-36
2023/01/04 08:18:25;;;;;;;4.15;2.45;;;10.90;99.90;;;;;;5068867;28;20048;-38
2023/01/04 08:21:01;;;;;;;5.47;2.28;;;10.90;99.90;;;;;;5060017;28;20063;-36
2023/01/04 08:23:27;;;;;;;4.13;1.83;;;10.90;99.90;;;;;;5068303;28;21141;-37
2023/01/04 08:25:53;;;;;;;3.53;2.08;;;10.90;99.90;;;;;;5056491;28;20447;-36
2023/01/04 08:28:18;;;;;;;4.97;1.75;;;10.90;99.90;;;;;;5063402;28;20215;-38
2023/01/04 08:30:44;;;;;;;3.88;1.67;;;10.90;99.90;;;;;;5064835;28;20029;-35
2023/01/04 08:33:14;;;;;;;4.05;2.13;;;10.90;99.90;;;;;;5065240;28;20485;-35
2023/01/04 08:35:40;;;;;;;4.10;2.08;;;10.90;99.90;;;;;;5059053;28;20044;-35
2023/01/04 08:38:06;;;;;;;2.67;1.42;;;10.90;99.90;;;;;;5064611;28;20037;-36
2023/01/04 08:40:32;;;;;;;4.25;1.65;;;10.90;99.90;;;;;;5067046;28;20437;-37
2023/01/04 08:42:57;;;;;;;4.95;1.40;;;10.90;99.90;;;;;;5072149;28;20112;-37
2023/01/04 08:45:23;;;;;;;5.13;1.92;;;10.90;99.90;;;;;;5077711;28;20041;-36
2023/01/04 08:47:49;;;;;;;3.40;1.98;;;10.90;99.90;;;;;;5073606;28;20036;-35
2023/01/04 08:50:15;;;;;;;5.38;2.35;;;10.90;99.90;;;;;;5063559;28;20084;-35
2023/01/04 08:52:41;;;;;;;5.43;1.65;;;10.90;99.90;;;;;;5073606;28;20072;-35
2023/01/04 08:55:07;;;;;;;5.72;2.35;;;10.90;99.90;;;;;;5059061;28;20063;-36
2023/01/04 08:57:34;;;;;;;4.53;2.25;;;10.90;99.90;;;;;;5049620;28;20048;-35
2023/01/04 09:00:00;;;;;;;3.63;1.70;;;10.90;99.90;;;;;;5054970;28;20514;-42
2023/01/04 09:02:27;;;;;;;2.97;1.45;;;10.90;99.90;;;;;;5069407;28;20032;-35
2023/01/04 09:05:02;;;;;;;4.70;1.90;;;10.90;99.90;;;;;;5067195;28;20040;-37
2023/01/04 09:07:32;;;;;;;2.63;1.45;;;10.90;99.90;;;;;;5068420;28;20086;-37
2023/01/04 09:09:59;;;;;;;2.70;1.30;;;10.90;99.90;;;;;;5066293;28;20040;-39
2023/01/04 09:12:25;;;;;;;4.28;1.40;;;10.90;99.90;;;;;;5063383;28;20032;-38
2023/01/04 09:14:51;;;;;;;2.08;1.20;;;10.90;99.90;;;;;;5076869;28;20074;-39
2023/01/04 09:17:17;;;;;;;2.13;0.98;;;10.90;99.90;;;;;;5073546;28;20044;-38
2023/01/04 09:19:42;;;;;;;1.73;0.90;;;10.90;99.90;;;;;;5070606;28;21075;-35
2023/01/04 09:22:08;;;;;;;1.63;0.68;;;10.90;99.90;;;;;;5069156;28;20040;-38
2023/01/04 09:24:34;;;;;;;1.30;0.70;;;11.00;99.90;;;;;;5067518;28;20394;-36
2023/01/04 09:27:00;;;;;;;1.55;0.80;;;10.90;99.90;;;;;;5070826;28;20397;-37
2023/01/04 09:29:26;;;;;;;2.42;0.52;;;11.00;99.90;;;;;;5072108;28;20032;-35
2023/01/04 09:31:53;;;;;;;1.60;0.70;;;11.00;99.90;;;;;;5068714;28;20132;-37
2023/01/04 09:34:19;;;;;;;2.28;0.55;;;11.00;99.90;;;;;;5052689;28;20489;-35
2023/01/04 09:36:46;;;;;;;1.55;0.60;;;11.00;99.90;;;;;;5065940;28;20044;-38
2023/01/04 09:39:12;;;;;;;1.50;0.50;;;11.00;99.90;;;;;;5059132;28;21008;-36
2023/01/04 09:41:44;;;;;;;1.15;0.40;;;11.00;99.90;;;;;;5069106;28;20036;-37
2023/01/04 09:44:20;;;;;;;1.98;0.38;;;11.00;99.90;;;;;;5061434;28;20093;-36
2023/01/04 09:46:54;;;;;;;0.65;0.40;;;11.00;99.90;;;;;;5036193;28;20041;-37
2023/01/04 09:49:40;;;;;;;0.80;0.40;;;11.00;99.90;;;;;;5064986;28;20105;-37
2023/01/04 09:52:08;;;;;;;1.13;0.50;;;11.00;99.90;;;;;;5043880;28;20056;-39
2023/01/04 09:54:46;;;;;;;1.20;0.50;;;11.10;99.90;;;;;;5065223;28;20047;-37
2023/01/04 09:57:47;;;;;;;1.73;0.77;;;11.10;99.90;;;;;;5048868;28;20055;-38
2023/01/04 10:00:27;;;;;;;1.48;0.40;;;11.10;99.90;;;;;;5069641;28;20123;-42
2023/01/04 10:03:16;;;;;;;2.65;0.60;;;11.10;99.90;;;;;;5060010;28;20498;-39
2023/01/04 10:05:41;;;;;;;3.78;0.60;;;11.10;99.90;;;;;;5060963;28;20052;-40
2023/01/04 10:08:18;;;;;;;2.38;0.50;;;11.20;99.90;;;;;;5071546;28;20036;-38
2023/01/04 10:11:16;;;;;;;1.42;0.70;;;11.20;99.90;;;;;;5067218;28;20029;-38
2023/01/04 10:13:50;;;;;;;2.67;0.70;;;11.30;99.90;;;;;;5037201;28;20761;-38
2023/01/04 10:16:40;;;;;;;3.75;0.77;;;11.30;99.90;;;;;;5053672;28;20446;-37
2023/01/04 10:19:37;;;;;;;7.20;1.33;;;11.30;99.90;;;;;;5069936;28;20032;-36
2023/01/04 10:22:17;;;;;;;5.03;0.70;;;11.40;99.90;;;;;;5068822;28;20039;-37
2023/01/04 10:25:10;;;;;;;4.75;0.80;;;11.40;99.90;;;;;;5055265;28;20036;-37
2023/01/04 10:27:56;;;;;;;4.50;0.90;;;11.40;99.90;;;;;;5062263;28;20133;-35
2023/01/04 10:31:05;;;;;;;5.55;1.23;;;11.50;99.90;;;;;;5042014;28;20037;-38
2023/01/04 10:33:48;;;;;;;9.27;1.08;;;11.60;99.90;;;;;;5014557;28;20796;-37
2023/01/04 10:36:22;;;;;;;3.17;0.73;;;11.60;99.90;;;;;;5067615;28;20041;-36
2023/01/04 10:38:57;;;;;;;6.60;1.02;;;11.70;99.90;;;;;;5057421;28;20666;-37
2023/01/04 10:41:26;;;;;;;3.95;1.00;;;11.70;99.90;;;;;;5059377;28;20044;-37
2023/01/04 10:44:16;;;;;;;4.05;1.00;;;11.70;99.90;;;;;;5063041;28;20480;-36
2023/01/04 10:47:16;;;;;;;6.18;1.00;;;11.70;99.90;;;;;;5025974;28;20402;-37
2023/01/04 10:49:53;;;;;;;4.03;1.20;;;11.80;99.90;;;;;;5066756;28;20087;-37
2023/01/04 10:52:46;;;;;;;6.22;1.48;;;11.80;99.90;;;;;;5058958;28;20476;-37
2023/01/04 10:55:32;;;;;;;6.63;1.45;;;11.80;99.90;;;;;;5045811;28;20045;-37
2023/01/04 10:58:05;;;;;;;6.50;0.90;;;11.80;99.90;;;;;;5066480;28;20045;-38
2023/01/04 11:00:50;;;;;;;13.60;1.65;;;11.80;99.90;;;;;;5071004;28;20047;-37
2023/01/04 11:03:30;;;;;;;7.90;1.30;;;11.90;99.90;;;;;;5071378;28;20040;-37
2023/01/04 11:06:31;;;;;;;9.70;1.15;;;11.90;99.90;;;;;;5061541;28;20040;-38
2023/01/04 11:09:11;;;;;;;6.43;0.95;;;12.00;99.90;;;;;;5021040;28;20045;-39
2023/01/04 11:11:43;;;;;;;10.02;1.38;;;12.00;99.90;;;;;;5060672;28;20497;-38
2023/01/04 11:14:09;;;;;;;18.20;3.25;;;12.00;99.90;;;;;;5061148;28;20037;-40
2023/01/04 11:16:36;;;;;;;6.22;1.40;;;12.00;99.90;;;;;;5044470;28;20115;-37
2023/01/04 11:19:04;;;;;;;7.95;1.45;;;12.00;99.90;;;;;;5063526;28;20204;-37
2023/01/04 11:21:38;;;;;;;10.45;2.17;;;12.10;99.90;;;;;;5066563;28;20094;-38
2023/01/04 11:24:06;;;;;;;12.90;1.60;;;12.00;99.90;;;;;;5023735;28;20060;-38
2023/01/04 11:26:38;;;;;;;4.78;1.50;;;12.10;99.90;;;;;;5062071;28;21482;-40
2023/01/04 11:29:11;;;;;;;11.73;1.70;;;12.10;99.90;;;;;;5058062;28;20079;-38
2023/01/04 11:31:42;;;;;;;10.30;1.50;;;12.20;99.90;;;;;;5062538;28;20524;-38
2023/01/04 11:34:08;;;;;;;8.50;2.05;;;12.20;99.90;;;;;;5059828;28;20115;-39
2023/01/04 11:36:38;;;;;;;8.45;1.60;;;12.20;99.90;;;;;;5065503;28;20492;-38
2023/01/04 11:39:15;;;;;;;10.48;1.42;;;12.20;99.90;;;;;;5061467;28;20048;-39
2023/01/04 11:41:56;;;;;;;8.70;1.77;;;12.30;99.90;;;;;;5060001;28;20045;-38
2023/01/04 11:44:23;;;;;;;9.98;1.48;;;12.30;99.90;;;;;;5054673;28;20055;-39
2023/01/04 11:47:04;;;;;;;6.40;1.05;;;12.30;99.90;;;;;;5070561;28;20062;-39
2023/01/04 11:49:35;;;;;;;10.23;1.40;;;12.30;99.90;;;;;;5062459;28;20624;-40
2023/01/04 11:52:00;;;;;;;4.90;1.02;;;12.30;99.90;;;;;;5068833;28;20060;-38
2023/01/04 11:54:26;;;;;;;8.07;1.02;;;12.30;99.90;;;;;;5068467;28;20139;-37
2023/01/04 11:57:02;;;;;;;10.43;0.98;;;12.20;99.90;;;;;;5065058;28;20547;-38
2023/01/04 11:59:28;;;;;;;3.13;0.47;;;12.20;99.90;;;;;;5063303;28;20041;-37
2023/01/04 12:02:16;;;;;;;6.07;0.60;;;12.20;99.90;;;;;;5062260;28;20120;-38
2023/01/04 12:04:42;;;;;;;3.75;0.70;;;12.10;99.90;;;;;;5056716;28;20037;-38
2023/01/04 12:07:32;;;;;;;2.88;0.50;;;12.00;99.90;;;;;;5057964;28;20032;-37
2023/01/04 12:09:59;;;;;;;2.45;0.43;;;12.00;99.90;;;;;;5049368;28;20055;-39
2023/01/04 12:12:32;;;;;;;2.03;0.40;;;12.00;99.90;;;;;;5060054;28;20045;-37
2023/01/04 12:15:04;;;;;;;3.15;0.70;;;12.00;99.90;;;;;;5065022;28;20070;-37
2023/01/04 12:17:48;;;;;;;3.92;0.70;;;12.00;99.90;;;;;;5047074;28;20085;-38
2023/01/04 12:20:20;;;;;;;3.13;1.02;;;12.10;99.90;;;;;;5067058;28;20119;-39
2023/01/04 12:22:46;;;;;;;3.53;0.77;;;12.10;99.90;;;;;;5064345;28;20369;-38
2023/01/04 12:25:42;;;;;;;3.35;0.47;;;12.00;99.90;;;;;;5062843;28;20499;-38
2023/01/04 12:28:27;;;;;;;3.13;0.57;;;12.00;99.90;;;;;;5069598;28;20560;-38
2023/01/04 12:30:52;;;;;;;2.92;0.43;;;12.00;99.90;;;;;;5057152;28;20513;-37
2023/01/04 12:33:38;;;;;;;2.10;0.45;;;11.90;99.90;;;;;;5059539;28;20040;-38
2023/01/04 12:36:06;;;;;;;4.68;0.70;;;11.90;99.90;;;;;;5063705;28;20050;-38
2023/01/04 12:38:51;;;;;;;3.15;0.60;;;11.90;99.90;;;;;;5044493;28;20045;-39
2023/01/04 12:41:18;;;;;;;2.22;0.73;;;11.90;99.90;;;;;;5069601;28;20071;-36
2023/01/04 12:43:46;;;;;;;4.10;1.17;;;12.00;99.90;;;;;;5060031;28;20048;-38
2023/01/04 12:49:28;;;;;;;5.60;0.88;;;12.00;99.90;;;;;;5061120;28;20072;-37
2023/01/04 12:52:09;;;;;;;6.15;1.27;;;12.00;99.90;;;;;;5058509;28;20441;-38
2023/01/04 12:54:50;;;;;;;3.85;0.75;;;12.10;99.90;;;;;;5058298;28;20043;-38
2023/01/04 12:57:15;;;;;;;6.85;1.02;;;12.10;99.90;;;;;;5062771;28;20040;-39
2023/01/04 12:59:58;;;;;;;6.05;1.00;;;12.20;99.90;;;;;;5061722;28;20566;-39
2023/01/04 13:02:27;;;;;;;11.98;2.55;;;12.20;99.90;;;;;;5061448;28;20056;-38
2023/01/04 13:05:13;;;;;;;9.18;1.10;;;12.20;99.90;;;;;;5065314;28;20081;-37
2023/01/04 13:07:46;;;;;;;7.90;1.00;;;12.20;99.90;;;;;;5058824;28;20576;-39
2023/01/04 13:10:52;;;;;;;8.45;1.02;;;12.20;99.90;;;;;;5056038;28;20059;-38
2023/01/04 13:13:26;;;;;;;6.95;1.17;;;12.30;99.90;;;;;;5059042;28;20040;-37
2023/01/04 13:16:10;;;;;;;6.95;1.00;;;12.30;99.90;;;;;;5068313;28;20404;-37
2023/01/04 13:19:11;;;;;;;14.55;1.88;;;12.30;99.90;;;;;;5063833;28;20481;-38
2023/01/04 13:21:42;;;;;;;5.15;1.42;;;12.40;99.90;;;;;;5061209;28;20048;-38
2023/01/04 13:24:22;;;;;;;7.03;0.98;;;12.40;99.90;;;;;;5047518;28;20063;-37
2023/01/04 13:26:49;;;;;;;11.82;1.67;;;12.40;99.90;;;;;;5050929;28;20154;-38
2023/01/04 13:29:19;;;;;;;8.82;1.02;;;12.40;99.90;;;;;;5063362;28;20044;-38
2023/01/04 13:32:03;;;;;;;8.35;1.33;;;12.40;99.90;;;;;;5042761;28;20822;-40
2023/01/04 13:34:34;;;;;;;4.63;1.00;;;12.40;99.90;;;;;;5062009;28;20567;-41
2023/01/04 13:37:09;;;;;;;11.48;1.95;;;12.40;99.90;;;;;;5058277;28;20572;-38
2023/01/04 13:39:37;;;;;;;5.97;0.90;;;12.40;99.90;;;;;;5063645;28;20133;-40
2023/01/04 13:42:05;;;;;;;9.60;1.73;;;12.40;99.90;;;;;;5059409;28;20025;-38
2023/01/04 13:44:56;;;;;;;11.35;1.42;;;12.40;99.90;;;;;;5069463;28;20128;-37
2023/01/04 13:47:22;;;;;;;9.52;1.30;;;12.40;99.90;;;;;;5050644;28;20040;-38
2023/01/04 13:49:48;;;;;;;13.10;2.60;;;12.40;99.90;;;;;;5066752;28;20038;-38
2023/01/04 13:52:24;;;;;;;10.75;1.20;;;12.40;99.90;;;;;;5066149;28;20518;-39
2023/01/04 13:54:50;;;;;;;9.55;1.33;;;12.30;99.90;;;;;;5069321;28;20851;-38
2023/01/04 13:57:20;;;;;;;8.88;1.83;;;12.30;99.90;;;;;;5069120;28;20070;-38
2023/01/04 13:59:50;;;;;;;5.13;1.17;;;12.30;99.90;;;;;;5065888;28;20178;-38
2023/01/04 14:02:18;;;;;;;4.85;1.20;;;12.30;99.90;;;;;;5069016;28;20048;-37
2023/01/04 14:04:45;;;;;;;11.57;1.63;;;12.30;99.90;;;;;;5073134;28;20037;-38